Weather at WeeWaa 2nd Airstrip

Public forecast

Using degrees Celsius for public forecast. Weather courtesy of forecast.io.

Closest aviation weather report (METAR) to WeeWaa 2nd Airstrip

Report is more than 6 hours old.

Closest report is Narrabri Airport, 19.9 nm (36.9 km) ESE. Retrieved 2022/07/03 01:33 UTC (1 day ago):

YNBR 030133Z AUTO 30004KT 9999 // SCT011 12/07 Q1018

Closest aviation forecast (TAF) to WeeWaa 2nd Airstrip

Closest forecast is Tamworth Airport, 87.7 nm (162.4 km) SE. Retrieved 2022-07-04 00:36 UTC (1 hour ago):

TAF YSTW 032322Z 0400/0418 VRB03KT 9999 SCT040